createdAt,value
2018-01-19T00:01:00.495Z,2.55
2018-01-19T00:03:28.001Z,2.42
2018-01-19T00:05:55.887Z,2.30
2018-01-19T00:08:24.128Z,1.80
2018-01-19T00:10:53.239Z,2.10
2018-01-19T00:13:21.466Z,2.42
2018-01-19T00:15:48.960Z,2.17
2018-01-19T00:18:16.734Z,2.28
2018-01-19T00:20:44.582Z,1.83
2018-01-19T00:23:22.221Z,1.90
2018-01-19T00:25:50.460Z,2.28
2018-01-19T00:28:17.946Z,2.65
2018-01-19T00:30:46.481Z,2.58
2018-01-19T00:33:13.983Z,1.60
2018-01-19T00:35:42.215Z,2.40
2018-01-19T00:38:10.219Z,2.05
2018-01-19T00:40:37.687Z,1.87
2018-01-19T00:43:05.551Z,2.10
2018-01-19T00:45:34.130Z,2.40
2018-01-19T00:48:02.367Z,2.53
2018-01-19T00:50:29.831Z,2.25
2018-01-19T00:52:57.665Z,2.60
2018-01-19T00:55:25.225Z,2.40
2018-01-19T00:57:53.451Z,2.33
2018-01-19T01:00:21.234Z,1.92
2018-01-19T01:02:49.462Z,2.60
2018-01-19T01:05:17.004Z,2.53
2018-01-19T01:07:46.051Z,2.50
2018-01-19T01:10:14.291Z,1.90
2018-01-19T01:12:42.161Z,2.12
2018-01-19T01:15:09.679Z,2.17
2018-01-19T01:17:37.154Z,1.60
2018-01-19T01:20:04.635Z,2.90
2018-01-19T01:22:33.171Z,2.35
2018-01-19T01:25:01.026Z,2.15
2018-01-19T01:27:28.613Z,1.50
2018-01-19T01:29:57.147Z,1.98
2018-01-19T01:32:25.062Z,1.30
2018-01-19T01:34:53.003Z,1.40
2018-01-19T01:37:20.971Z,1.35
2018-01-19T01:39:49.226Z,1.30
2018-01-19T01:42:16.747Z,1.10
2018-01-19T01:44:44.596Z,1.25
2018-01-19T01:47:12.055Z,1.05
2018-01-19T01:49:39.515Z,1.10
2018-01-19T01:52:08.045Z,2.00
2018-01-19T01:54:36.279Z,3.15
2018-01-19T01:57:04.953Z,3.25
2018-01-19T01:59:33.191Z,2.95
2018-01-19T02:02:01.055Z,3.90
2018-01-19T02:04:29.290Z,7.20
2018-01-19T02:06:57.907Z,4.80
2018-01-19T02:09:25.374Z,5.30
2018-01-19T02:11:53.603Z,6.60
2018-01-19T02:14:21.962Z,3.75
2018-01-19T02:16:49.835Z,2.60
2018-01-19T02:19:17.300Z,2.05
2018-01-19T02:21:45.107Z,1.67
2018-01-19T02:24:13.430Z,2.30
2018-01-19T02:26:41.296Z,2.03
2018-01-19T02:29:09.572Z,1.60
2018-01-19T02:31:37.439Z,1.62
2018-01-19T02:34:05.131Z,2.50
2018-01-19T02:36:38.448Z,1.90
2018-01-19T02:39:06.000Z,1.85
2018-01-19T02:41:41.850Z,2.00
2018-01-19T02:44:14.075Z,2.30
2018-01-19T02:46:43.176Z,2.40
2018-01-19T02:49:11.444Z,2.10
2018-01-19T02:51:38.907Z,2.05
2018-01-19T02:54:20.796Z,2.10
2018-01-19T02:56:49.789Z,2.53
2018-01-19T02:59:18.037Z,2.50
2018-01-19T03:01:45.891Z,2.50
2018-01-19T03:04:14.124Z,2.85
2018-01-19T03:06:42.023Z,3.10
2018-01-19T03:09:10.254Z,3.40
2018-01-19T03:11:37.707Z,3.58
2018-01-19T03:14:05.571Z,3.62
2018-01-19T03:16:33.442Z,3.47
2018-01-19T03:19:01.755Z,3.60
2018-01-19T03:21:29.637Z,3.17
2018-01-19T03:23:57.139Z,3.37
2018-01-19T03:26:26.412Z,3.15
2018-01-19T03:28:54.641Z,3.70
2018-01-19T03:31:22.098Z,3.97
2018-01-19T03:33:49.628Z,4.22
2018-01-19T03:36:18.618Z,4.62
2018-01-19T03:38:46.459Z,4.82
2018-01-19T03:41:14.687Z,5.03
2018-01-19T03:43:42.630Z,6.05
2018-01-19T03:46:10.108Z,8.75
2018-01-19T03:48:38.159Z,7.22
2018-01-19T03:51:07.205Z,7.00
2018-01-19T03:53:35.089Z,7.22
2018-01-19T03:56:02.956Z,7.20
2018-01-19T03:58:31.520Z,7.03
2018-01-19T04:00:59.384Z,6.22
2018-01-19T04:03:26.854Z,6.70
2018-01-19T04:05:55.086Z,7.40
2018-01-19T04:08:22.945Z,8.48
2018-01-19T04:10:50.406Z,7.07
2018-01-19T04:13:17.915Z,7.82
2018-01-19T04:15:46.140Z,7.90
2018-01-19T04:18:13.610Z,6.93
2018-01-19T04:20:41.503Z,6.97
2018-01-19T04:23:09.791Z,7.53
2018-01-19T04:25:37.703Z,7.65
2018-01-19T04:28:05.623Z,7.68
2018-01-19T04:30:33.948Z,7.87
2018-01-19T04:33:01.404Z,7.60
2018-01-19T04:35:29.214Z,6.95
2018-01-19T04:37:57.087Z,7.43
2018-01-19T04:40:24.987Z,7.32
2018-01-19T04:42:52.819Z,5.40
2018-01-19T04:45:21.079Z,6.45
2018-01-19T04:47:48.564Z,5.75
2018-01-19T04:50:16.817Z,5.95
2018-01-19T04:52:44.699Z,5.70
2018-01-19T04:55:13.002Z,5.62
2018-01-19T04:57:41.686Z,5.45
2018-01-19T05:00:09.134Z,4.50
2018-01-19T05:02:37.399Z,5.68
2018-01-19T05:05:05.247Z,5.35
2018-01-19T05:07:33.475Z,5.65
2018-01-19T05:10:00.946Z,5.25
2018-01-19T05:12:28.839Z,4.37
2018-01-19T05:14:56.706Z,5.00
2018-01-19T05:17:24.167Z,4.70
2018-01-19T05:19:52.468Z,4.20
2018-01-19T05:22:20.713Z,4.62
2018-01-19T05:24:48.938Z,4.00
2018-01-19T05:27:16.751Z,4.37
2018-01-19T05:29:44.665Z,4.50
2018-01-19T05:32:12.534Z,4.05
2018-01-19T05:34:41.270Z,3.97
2018-01-19T05:37:08.778Z,4.00
2018-01-19T05:39:36.246Z,4.45
2018-01-19T05:42:04.459Z,4.28
2018-01-19T05:44:32.699Z,4.28
2018-01-19T05:47:00.195Z,4.78
2018-01-19T05:49:28.060Z,4.10
2018-01-19T05:51:56.333Z,3.92
2018-01-19T05:54:23.790Z,3.15
2018-01-19T05:56:51.967Z,3.33
2018-01-19T05:59:19.846Z,3.42
2018-01-19T06:01:48.157Z,3.40
2018-01-19T06:04:16.005Z,3.30
2018-01-19T06:06:44.299Z,2.80
2018-01-19T06:09:12.166Z,3.08
2018-01-19T06:11:40.444Z,3.67
2018-01-19T06:14:08.310Z,3.08
2018-01-19T06:16:35.767Z,3.40
2018-01-19T06:19:04.403Z,3.55
2018-01-19T06:21:32.344Z,3.70
2018-01-19T06:23:59.805Z,3.35
2018-01-19T06:26:27.587Z,3.30
2018-01-19T06:28:55.061Z,3.33
2018-01-19T06:31:23.325Z,3.97
2018-01-19T06:33:51.935Z,4.25
2018-01-19T06:36:19.803Z,4.93
2018-01-19T06:38:47.688Z,4.10
2018-01-19T06:41:15.507Z,5.43
2018-01-19T06:43:43.019Z,4.00
2018-01-19T06:46:10.895Z,4.35
2018-01-19T06:48:39.664Z,3.92
2018-01-19T06:51:07.224Z,3.45
2018-01-19T06:53:34.784Z,3.72
2018-01-19T06:56:02.759Z,3.40
2018-01-19T06:58:30.612Z,3.17
2018-01-19T07:00:58.551Z,3.12
2018-01-19T07:03:26.868Z,3.55
2018-01-19T07:05:54.734Z,3.50
2018-01-19T07:08:22.210Z,3.53
2018-01-19T07:10:50.530Z,3.78
2018-01-19T07:13:18.394Z,3.37
2018-01-19T07:15:46.255Z,3.40
2018-01-19T07:18:14.835Z,4.12
2018-01-19T07:20:43.071Z,3.40
2018-01-19T07:23:11.333Z,3.47
2018-01-19T07:25:38.814Z,3.28
2018-01-19T07:28:06.286Z,3.17
2018-01-19T07:30:34.140Z,3.35
2018-01-19T07:33:02.019Z,3.67
2018-01-19T07:35:29.520Z,2.95
2018-01-19T07:37:57.791Z,3.47
2018-01-19T07:40:26.547Z,3.67
2018-01-19T07:42:54.432Z,4.60
2018-01-19T07:45:22.691Z,4.12
2018-01-19T07:47:50.558Z,4.30
2018-01-19T07:50:18.427Z,4.10
2018-01-19T07:52:45.903Z,3.42
2018-01-19T07:55:14.462Z,3.47
2018-01-19T07:57:42.382Z,3.42
2018-01-19T08:00:10.244Z,3.00
2018-01-19T08:02:38.784Z,4.43
2018-01-19T08:05:06.647Z,4.90
2018-01-19T08:07:34.563Z,6.75
2018-01-19T08:10:03.147Z,4.93
2018-01-19T08:12:31.371Z,4.68
2018-01-19T08:14:59.219Z,4.03
2018-01-19T08:17:27.811Z,4.20
2018-01-19T08:19:55.271Z,3.65
2018-01-19T08:22:23.123Z,3.90
2018-01-19T08:24:52.761Z,4.45
2018-01-19T08:27:20.635Z,5.43
2018-01-19T08:29:48.942Z,6.15
2018-01-19T08:32:17.526Z,5.80
2018-01-19T08:34:44.992Z,4.15
2018-01-19T08:37:12.458Z,4.35
2018-01-19T08:39:40.250Z,3.90
2018-01-19T08:42:08.494Z,4.07
2018-01-19T08:44:36.355Z,3.90
2018-01-19T08:47:05.287Z,3.92
2018-01-19T08:49:33.613Z,3.50
2018-01-19T08:52:01.485Z,4.82
2018-01-19T08:54:30.212Z,5.10
2018-01-19T08:56:58.479Z,4.60
2018-01-19T08:59:25.935Z,4.62
2018-01-19T09:01:53.831Z,4.12
2018-01-19T09:04:22.143Z,4.25
2018-01-19T09:06:49.631Z,4.60
2018-01-19T09:09:17.633Z,4.90
2018-01-19T09:11:57.962Z,5.78
2018-01-19T09:14:25.450Z,5.95
2018-01-19T09:16:53.695Z,6.07
2018-01-19T09:19:22.682Z,4.28
2018-01-19T09:21:50.170Z,4.40
2018-01-19T09:24:18.400Z,4.00
2018-01-19T09:26:46.547Z,3.50
2018-01-19T09:29:14.786Z,3.75
2018-01-19T09:31:42.247Z,3.40
2018-01-19T09:34:10.487Z,2.60
2018-01-19T09:36:39.104Z,3.37
2018-01-19T09:39:06.967Z,3.42
2018-01-19T09:41:34.891Z,2.80
2018-01-19T09:44:03.126Z,2.70
2018-01-19T09:46:30.616Z,2.03
2018-01-19T09:48:58.082Z,2.85
2018-01-19T09:51:26.611Z,2.40
2018-01-19T09:53:54.487Z,4.10
2018-01-19T09:56:22.355Z,2.50
2018-01-19T09:58:50.879Z,1.80
2018-01-19T10:01:19.554Z,1.90
2018-01-19T10:03:47.403Z,2.00
2018-01-19T10:06:15.162Z,2.08
2018-01-19T10:08:42.646Z,1.73
2018-01-19T10:11:10.201Z,2.00
2018-01-19T10:13:38.843Z,2.70
2018-01-19T10:16:06.711Z,2.53
2018-01-19T10:18:34.230Z,1.77
2018-01-19T10:21:02.025Z,1.80
2018-01-19T10:23:29.528Z,1.62
2018-01-19T10:25:57.043Z,1.70
2018-01-19T10:28:25.322Z,1.80
2018-01-19T10:30:53.184Z,2.08
2018-01-19T10:33:21.044Z,2.90
2018-01-19T10:35:50.365Z,3.30
2018-01-19T10:38:18.619Z,2.45
2018-01-19T10:40:46.515Z,3.60
2018-01-19T10:43:14.686Z,4.18
2018-01-19T10:45:42.565Z,4.15
2018-01-19T10:48:10.358Z,6.03
2018-01-19T10:50:38.589Z,3.42
2018-01-19T10:53:06.162Z,1.98
2018-01-19T10:55:34.790Z,2.00
2018-01-19T10:58:02.590Z,2.20
2018-01-19T11:00:30.449Z,2.08
2018-01-19T11:03:00.447Z,2.00
2018-01-19T11:05:28.330Z,2.55
2018-01-19T11:07:56.258Z,2.53
2018-01-19T11:10:23.720Z,2.60
2018-01-19T11:12:52.342Z,2.12
2018-01-19T11:15:20.663Z,2.70
2018-01-19T11:17:49.461Z,2.67
2018-01-19T11:20:17.707Z,2.12
2018-01-19T11:22:45.178Z,2.53
2018-01-19T11:25:12.642Z,2.80
2018-01-19T11:27:40.432Z,2.30
2018-01-19T11:30:07.964Z,3.70
2018-01-19T11:32:36.192Z,2.30
2018-01-19T11:35:04.362Z,3.00
2018-01-19T11:37:32.615Z,3.75
2018-01-19T11:40:00.080Z,3.85
2018-01-19T11:42:28.730Z,4.37
2018-01-19T11:44:56.266Z,2.20
2018-01-19T11:47:24.527Z,2.15
2018-01-19T11:49:52.843Z,2.80
2018-01-19T11:52:20.708Z,2.15
2018-01-19T11:54:48.180Z,2.47
2018-01-19T11:57:17.192Z,3.05
2018-01-19T11:59:45.539Z,2.75
2018-01-19T12:02:13.402Z,2.40
2018-01-19T12:04:41.717Z,2.20
2018-01-19T12:07:09.203Z,1.95
2018-01-19T12:09:37.431Z,2.00
2018-01-19T12:12:05.792Z,2.30
2018-01-19T12:14:33.695Z,1.92
2018-01-19T12:17:01.572Z,2.40
2018-01-19T12:19:29.743Z,2.20
2018-01-19T12:21:57.275Z,2.03
2018-01-19T12:24:25.531Z,2.10
2018-01-19T12:26:53.307Z,1.23
2018-01-19T12:29:21.175Z,2.40
2018-01-19T12:31:48.646Z,1.70
2018-01-19T12:34:16.842Z,1.98
2018-01-19T12:36:44.962Z,2.05
2018-01-19T12:39:12.622Z,2.85
2018-01-19T12:41:40.690Z,2.67
2018-01-19T12:44:09.228Z,3.12
2018-01-19T12:46:36.766Z,4.07
2018-01-19T12:49:05.382Z,4.05
2018-01-19T12:51:33.249Z,2.90
2018-01-19T12:54:01.486Z,2.78
2018-01-19T12:56:30.267Z,2.30
2018-01-19T12:58:57.745Z,1.85
2018-01-19T13:01:25.688Z,1.75
2018-01-19T13:03:54.306Z,2.10
2018-01-19T13:06:22.563Z,2.60
2018-01-19T13:08:50.428Z,2.03
2018-01-19T13:11:18.738Z,1.65
2018-01-19T13:13:46.967Z,2.35
2018-01-19T13:16:14.438Z,2.30
2018-01-19T13:18:42.423Z,2.42
2018-01-19T13:21:10.290Z,1.55
2018-01-19T13:23:37.923Z,2.20
2018-01-19T13:26:06.687Z,1.87
2018-01-19T13:28:34.246Z,2.87
2018-01-19T13:31:01.709Z,2.28
2018-01-19T13:33:29.639Z,1.62
2018-01-19T13:35:57.874Z,2.45
2018-01-19T13:38:25.328Z,1.62
2018-01-19T13:40:53.226Z,2.97
2018-01-19T13:43:21.091Z,1.90
2018-01-19T13:45:49.011Z,2.00
2018-01-19T13:48:16.833Z,1.30
2018-01-19T13:50:44.290Z,2.30
2018-01-19T13:53:12.515Z,2.28
2018-01-19T13:55:40.687Z,2.22
2018-01-19T13:58:08.144Z,1.92
2018-01-19T14:00:35.617Z,1.62
2018-01-19T14:03:03.503Z,1.95
2018-01-19T14:05:32.546Z,1.60
2018-01-19T14:08:00.025Z,1.60
2018-01-19T14:10:27.807Z,1.27
2018-01-19T14:12:56.778Z,2.90
2018-01-19T14:15:24.239Z,3.00
2018-01-19T14:17:52.840Z,2.90
2018-01-19T14:20:20.311Z,3.20
2018-01-19T14:22:48.959Z,2.42
2018-01-19T14:25:16.754Z,2.80
2018-01-19T14:27:45.718Z,3.10
2018-01-19T14:30:13.588Z,2.72
2018-01-19T14:32:41.414Z,2.80
2018-01-19T14:35:08.888Z,2.17
2018-01-19T14:37:36.359Z,3.92
2018-01-19T14:40:04.535Z,4.55
2018-01-19T14:42:32.802Z,4.15
2018-01-19T14:45:00.301Z,6.28
2018-01-19T14:47:28.579Z,3.45
2018-01-19T14:49:56.432Z,2.30
2018-01-19T14:52:23.917Z,2.50
2018-01-19T14:54:52.579Z,2.25
2018-01-19T14:57:20.094Z,2.20
2018-01-19T14:59:48.062Z,2.65
2018-01-19T15:02:16.941Z,3.00
2018-01-19T15:04:44.415Z,2.47
2018-01-19T15:07:12.291Z,3.00
2018-01-19T15:09:40.067Z,3.70
2018-01-19T15:12:07.551Z,3.10
2018-01-19T15:14:35.036Z,2.83
2018-01-19T15:17:02.511Z,1.80
2018-01-19T15:19:29.979Z,1.50
2018-01-19T15:21:58.244Z,1.67
2018-01-19T15:24:26.851Z,1.85
2018-01-19T15:26:54.315Z,1.40
2018-01-19T15:29:21.780Z,1.77
2018-01-19T15:31:50.381Z,1.77
2018-01-19T15:34:18.622Z,5.45
2018-01-19T15:36:46.886Z,8.30
2018-01-19T15:39:15.150Z,8.52
2018-01-19T15:41:42.686Z,4.10
2018-01-19T15:44:10.167Z,3.62
2018-01-19T15:46:38.088Z,4.00
2018-01-19T15:49:05.979Z,3.00
2018-01-19T15:51:34.687Z,2.85
2018-01-19T15:54:02.412Z,2.10
2018-01-19T15:56:30.718Z,3.00
2018-01-19T15:58:58.959Z,2.67
2018-01-19T16:01:27.207Z,3.58
2018-01-19T16:03:55.132Z,2.62
2018-01-19T16:06:23.365Z,2.20
2018-01-19T16:08:51.245Z,2.20
2018-01-19T16:11:19.476Z,2.25
2018-01-19T16:13:47.361Z,2.83
2018-01-19T16:16:14.838Z,2.70
2018-01-19T16:18:42.703Z,3.08
2018-01-19T16:21:10.931Z,2.95
2018-01-19T16:23:39.276Z,2.28
2018-01-19T16:26:07.500Z,2.78
2018-01-19T16:28:35.446Z,2.78
2018-01-19T16:31:02.918Z,2.10
2018-01-19T16:33:31.142Z,3.58
2018-01-19T16:35:59.971Z,2.15
2018-01-19T16:38:27.854Z,3.00
2018-01-19T16:40:55.707Z,3.80
2018-01-19T16:43:23.978Z,4.53
2018-01-19T16:45:52.611Z,6.50
2018-01-19T16:48:20.858Z,8.00
2018-01-19T16:50:49.115Z,7.03
2018-01-19T16:53:17.726Z,2.90
2018-01-19T16:55:45.214Z,5.12
2018-01-19T16:58:12.667Z,5.95
2018-01-19T17:00:40.943Z,4.85
2018-01-19T17:03:08.851Z,4.30
2018-01-19T17:05:36.313Z,3.58
2018-01-19T17:08:03.783Z,3.25
2018-01-19T17:10:31.248Z,4.40
2018-01-19T17:12:59.107Z,4.65
2018-01-19T17:15:27.350Z,5.45
2018-01-19T17:17:55.247Z,4.53
2018-01-19T17:20:23.469Z,4.82
2018-01-19T17:22:51.715Z,4.40
2018-01-19T17:25:19.585Z,3.72
2018-01-19T17:27:48.635Z,4.18
2018-01-19T17:30:16.157Z,4.45
2018-01-19T17:32:44.020Z,6.93
2018-01-19T17:35:12.252Z,8.43
2018-01-19T17:37:39.731Z,10.63
2018-01-19T17:40:07.199Z,10.38
2018-01-19T17:42:35.065Z,9.10
2018-01-19T17:45:02.531Z,6.18
2018-01-19T17:47:31.511Z,5.25
2018-01-19T17:49:59.758Z,5.62
2018-01-19T17:52:27.233Z,7.68
2018-01-19T17:54:55.095Z,5.75
2018-01-19T17:57:22.963Z,7.00
2018-01-19T17:59:50.452Z,5.75
2018-01-19T18:02:18.678Z,5.80
2018-01-19T18:04:46.943Z,5.20
2018-01-19T18:07:15.575Z,6.70
2018-01-19T18:09:44.547Z,6.62
2018-01-19T18:12:12.794Z,6.80
2018-01-19T18:14:41.027Z,6.40
2018-01-19T18:17:09.348Z,4.70
2018-01-19T18:19:37.588Z,4.70
2018-01-19T18:22:06.568Z,5.47
2018-01-19T18:24:34.435Z,5.00
2018-01-19T18:27:02.310Z,6.78
2018-01-19T18:29:30.571Z,6.25
2018-01-19T18:31:58.080Z,5.72
2018-01-19T18:34:25.941Z,6.35
2018-01-19T18:36:53.831Z,6.80
2018-01-19T18:39:22.103Z,5.97
2018-01-19T18:41:50.193Z,8.38
2018-01-19T18:44:17.658Z,6.15
2018-01-19T18:46:46.645Z,6.95
2018-01-19T18:49:14.891Z,6.82
2018-01-19T18:51:43.504Z,6.50
2018-01-19T18:54:11.739Z,8.90
2018-01-19T18:56:39.223Z,8.00
2018-01-19T18:59:07.848Z,9.15
2018-01-19T19:01:36.123Z,9.10
2018-01-19T19:04:03.646Z,10.07
2018-01-19T19:06:31.958Z,16.05
2018-01-19T19:09:00.285Z,13.25
2018-01-19T19:11:28.513Z,9.25
2018-01-19T19:13:56.777Z,9.52
2018-01-19T19:16:24.653Z,6.60
2018-01-19T19:18:52.527Z,4.15
2018-01-19T19:21:20.837Z,4.90
2018-01-19T19:23:49.029Z,4.70
2018-01-19T19:26:16.887Z,4.40
2018-01-19T19:28:45.149Z,4.50
2018-01-19T19:31:13.429Z,5.65
2018-01-19T19:33:41.259Z,7.05
2018-01-19T19:36:08.851Z,10.88
2018-01-19T19:38:37.463Z,10.90
2018-01-19T19:41:05.340Z,14.15
2018-01-19T19:43:32.820Z,18.67
2018-01-19T19:46:01.056Z,16.05
2018-01-19T19:48:28.979Z,11.60
2018-01-19T19:50:56.560Z,7.35
2018-01-19T19:53:24.020Z,4.12
2018-01-19T19:55:51.483Z,5.62
2018-01-19T19:58:19.354Z,5.50
2018-01-19T20:00:47.220Z,4.18
2018-01-19T20:03:15.522Z,5.28
2018-01-19T20:05:43.451Z,6.35
2018-01-19T20:08:10.916Z,5.25
2018-01-19T20:10:39.160Z,6.95
2018-01-19T20:13:07.720Z,6.87
2018-01-19T20:15:35.428Z,6.00
2018-01-19T20:18:03.397Z,4.90
2018-01-19T20:20:31.672Z,4.68
2018-01-19T20:22:59.907Z,4.30
2018-01-19T20:25:27.766Z,4.80
2018-01-19T20:27:56.019Z,5.72
2018-01-19T20:30:24.267Z,4.80
2018-01-19T20:32:52.588Z,4.45
2018-01-19T20:35:21.117Z,4.40
2018-01-19T20:37:49.400Z,5.65
2018-01-19T20:40:17.644Z,8.45
2018-01-19T20:42:45.903Z,8.73
2018-01-19T20:45:13.768Z,9.52
2018-01-19T20:47:41.243Z,11.00
2018-01-19T20:50:09.511Z,8.30
2018-01-19T20:52:37.566Z,7.47
2018-01-19T20:55:05.892Z,6.30
2018-01-19T20:57:33.692Z,5.57
2018-01-19T21:00:01.228Z,5.15
2018-01-19T21:05:04.272Z,6.70
2018-01-19T21:07:32.891Z,7.78
2018-01-19T21:10:00.760Z,8.20
2018-01-19T21:12:29.071Z,5.82
2018-01-19T21:14:57.430Z,5.78
2018-01-19T21:17:25.459Z,5.37
2018-01-19T21:19:53.422Z,6.97
2018-01-19T21:22:21.317Z,7.53
2018-01-19T21:24:49.625Z,5.70
2018-01-19T21:27:17.107Z,8.65
2018-01-19T21:29:45.023Z,7.60
2018-01-19T21:32:12.904Z,9.90
2018-01-19T21:34:41.206Z,7.50
2018-01-19T21:37:09.071Z,3.00
2018-01-19T21:39:36.947Z,4.55
2018-01-19T21:42:05.140Z,6.12
2018-01-19T21:44:32.647Z,6.68
2018-01-19T21:47:01.346Z,6.20
2018-01-19T21:49:29.581Z,6.65
2018-01-19T21:51:57.450Z,6.97
2018-01-19T21:54:25.055Z,5.68
2018-01-19T21:56:53.684Z,4.43
2018-01-19T21:59:21.907Z,3.37
2018-01-19T22:01:49.378Z,4.10
2018-01-19T22:04:17.331Z,3.45
2018-01-19T22:06:45.360Z,3.80
2018-01-19T22:09:12.880Z,3.15
2018-01-19T22:11:41.159Z,3.40
2018-01-19T22:14:09.407Z,5.32
2018-01-19T22:16:36.866Z,3.62
2018-01-19T22:19:04.744Z,3.87
2018-01-19T22:21:33.127Z,3.95
2018-01-19T22:24:01.018Z,3.70
2018-01-19T22:26:29.395Z,4.75
2018-01-19T22:28:57.625Z,4.50
2018-01-19T22:31:25.141Z,4.55
2018-01-19T22:33:53.758Z,4.40
2018-01-19T22:36:21.623Z,4.55
2018-01-19T22:38:49.527Z,4.15
2018-01-19T22:41:17.295Z,5.10
2018-01-19T22:43:44.751Z,4.37
2018-01-19T22:46:12.228Z,4.97
2018-01-19T22:48:40.091Z,3.10
2018-01-19T22:51:08.319Z,3.08
2018-01-19T22:53:36.687Z,5.03
2018-01-19T22:56:04.940Z,2.85
2018-01-19T22:58:32.419Z,3.30
2018-01-19T23:00:59.980Z,3.50
2018-01-19T23:03:28.639Z,2.80
2018-01-19T23:05:56.875Z,3.10
2018-01-19T23:08:25.165Z,4.07
2018-01-19T23:10:54.159Z,3.87
2018-01-19T23:13:22.034Z,3.47
2018-01-19T23:15:49.874Z,3.05
2018-01-19T23:18:17.768Z,3.25
2018-01-19T23:20:45.636Z,3.42
2018-01-19T23:23:13.864Z,2.60
2018-01-19T23:25:42.111Z,2.70
2018-01-19T23:28:09.980Z,3.35
2018-01-19T23:30:38.203Z,3.60
2018-01-19T23:33:05.692Z,3.50
2018-01-19T23:35:33.575Z,3.50
2018-01-19T23:38:01.426Z,3.20
2018-01-19T23:40:29.682Z,3.17
2018-01-19T23:42:58.011Z,3.47
2018-01-19T23:45:26.253Z,3.08
2018-01-19T23:47:54.491Z,3.42
2018-01-19T23:50:21.971Z,3.25
2018-01-19T23:52:49.446Z,3.10
2018-01-19T23:55:17.748Z,3.40
2018-01-19T23:57:45.967Z,3.40
